sensor_id;sensor_type;location;lat;lon;timestamp;pressure;altitude;pressure_sealevel;temperature;humidity
5954;BME280;3002;42.642;24.812;2023-04-29T00:01:06;96617.41;;;10.75;59.32
5954;BME280;3002;42.642;24.812;2023-04-29T00:03:32;96625.00;;;10.91;59.06
5954;BME280;3002;42.642;24.812;2023-04-29T00:05:58;96595.31;;;10.83;58.36
5954;BME280;3002;42.642;24.812;2023-04-29T00:08:23;96621.25;;;10.92;58.42
5954;BME280;3002;42.642;24.812;2023-04-29T00:10:49;96604.34;;;10.68;58.67
5954;BME280;3002;42.642;24.812;2023-04-29T00:13:15;96597.75;;;10.55;58.08
5954;BME280;3002;42.642;24.812;2023-04-29T00:15:40;96601.41;;;10.64;57.92
5954;BME280;3002;42.642;24.812;2023-04-29T00:18:06;96618.66;;;10.82;57.26
5954;BME280;3002;42.642;24.812;2023-04-29T00:20:33;96615.53;;;10.75;57.39
5954;BME280;3002;42.642;24.812;2023-04-29T00:22:59;96616.16;;;10.91;57.07
5954;BME280;3002;42.642;24.812;2023-04-29T00:25:24;96615.28;;;10.71;57.58
5954;BME280;3002;42.642;24.812;2023-04-29T00:27:50;96620.91;;;10.75;56.89
5954;BME280;3002;42.642;24.812;2023-04-29T00:30:16;96617.38;;;10.80;57.09
5954;BME280;3002;42.642;24.812;2023-04-29T00:32:41;96627.00;;;10.81;57.03
5954;BME280;3002;42.642;24.812;2023-04-29T00:35:08;96609.06;;;10.76;57.19
5954;BME280;3002;42.642;24.812;2023-04-29T00:37:33;96607.28;;;10.66;56.82
5954;BME280;3002;42.642;24.812;2023-04-29T00:39:59;96612.22;;;10.83;56.47
5954;BME280;3002;42.642;24.812;2023-04-29T00:42:24;96628.25;;;10.88;56.34
5954;BME280;3002;42.642;24.812;2023-04-29T00:44:50;96628.31;;;10.83;56.71
5954;BME280;3002;42.642;24.812;2023-04-29T00:47:16;96589.84;;;10.69;56.79
5954;BME280;3002;42.642;24.812;2023-04-29T00:49:42;96607.56;;;10.65;62.92
5954;BME280;3002;42.642;24.812;2023-04-29T00:52:10;96591.66;;;10.50;64.82
5954;BME280;3002;42.642;24.812;2023-04-29T00:54:36;96599.16;;;10.48;66.67
5954;BME280;3002;42.642;24.812;2023-04-29T00:57:03;96610.31;;;10.60;67.42
5954;BME280;3002;42.642;24.812;2023-04-29T00:59:30;96588.41;;;9.84;72.25
5954;BME280;3002;42.642;24.812;2023-04-29T01:02:03;96603.56;;;9.99;73.74
5954;BME280;3002;42.642;24.812;2023-04-29T01:04:29;96607.34;;;9.93;75.51
5954;BME280;3002;42.642;24.812;2023-04-29T01:07:16;96592.91;;;9.89;76.14
5954;BME280;3002;42.642;24.812;2023-04-29T01:10:13;96600.91;;;9.94;77.30
5954;BME280;3002;42.642;24.812;2023-04-29T01:12:48;96600.75;;;9.80;77.85
5954;BME280;3002;42.642;24.812;2023-04-29T01:15:25;96583.94;;;9.70;78.39
5954;BME280;3002;42.642;24.812;2023-04-29T01:17:59;96591.69;;;9.71;76.32
5954;BME280;3002;42.642;24.812;2023-04-29T01:20:29;96584.13;;;9.83;73.67
5954;BME280;3002;42.642;24.812;2023-04-29T01:22:55;96555.53;;;9.74;72.54
5954;BME280;3002;42.642;24.812;2023-04-29T01:25:20;96600.47;;;9.82;74.01
5954;BME280;3002;42.642;24.812;2023-04-29T01:28:04;96588.69;;;9.83;71.37
5954;BME280;3002;42.642;24.812;2023-04-29T01:30:59;96589.69;;;9.92;71.08
5954;BME280;3002;42.642;24.812;2023-04-29T01:41:47;96575.06;;;9.79;71.51
5954;BME280;3002;42.642;24.812;2023-04-29T01:44:21;96574.78;;;9.81;76.79
5954;BME280;3002;42.642;24.812;2023-04-29T01:46:51;96566.06;;;9.99;75.38
5954;BME280;3002;42.642;24.812;2023-04-29T01:49:24;96565.22;;;9.70;78.99
5954;BME280;3002;42.642;24.812;2023-04-29T01:51:50;96589.88;;;9.67;79.83
5954;BME280;3002;42.642;24.812;2023-04-29T01:54:15;96558.41;;;9.48;79.79
5954;BME280;3002;42.642;24.812;2023-04-29T01:56:42;96565.22;;;9.64;78.47
5954;BME280;3002;42.642;24.812;2023-04-29T01:59:07;96589.09;;;9.61;79.18
5954;BME280;3002;42.642;24.812;2023-04-29T02:01:33;96576.28;;;9.53;79.85
5954;BME280;3002;42.642;24.812;2023-04-29T02:03:58;96583.03;;;9.45;81.52
5954;BME280;3002;42.642;24.812;2023-04-29T02:06:24;96587.28;;;9.51;81.86
5954;BME280;3002;42.642;24.812;2023-04-29T02:08:51;96576.06;;;9.49;81.64
5954;BME280;3002;42.642;24.812;2023-04-29T02:11:16;96595.91;;;8.73;90.60
5954;BME280;3002;42.642;24.812;2023-04-29T02:13:42;96595.00;;;9.03;88.52
5954;BME280;3002;42.642;24.812;2023-04-29T02:16:11;96579.44;;;9.10;89.41
5954;BME280;3002;42.642;24.812;2023-04-29T02:18:37;96586.38;;;9.17;85.27
5954;BME280;3002;42.642;24.812;2023-04-29T02:21:04;96583.59;;;8.77;86.19
5954;BME280;3002;42.642;24.812;2023-04-29T02:23:29;96579.34;;;8.71;87.77
5954;BME280;3002;42.642;24.812;2023-04-29T02:25:55;96577.44;;;8.82;88.22
5954;BME280;3002;42.642;24.812;2023-04-29T02:28:21;96585.47;;;8.77;90.50
5954;BME280;3002;42.642;24.812;2023-04-29T02:30:48;96584.38;;;8.88;89.08
5954;BME280;3002;42.642;24.812;2023-04-29T02:33:14;96573.69;;;8.83;88.74
5954;BME280;3002;42.642;24.812;2023-04-29T02:35:39;96570.25;;;8.67;88.70
5954;BME280;3002;42.642;24.812;2023-04-29T02:38:05;96569.25;;;8.53;86.95
5954;BME280;3002;42.642;24.812;2023-04-29T02:40:30;96568.44;;;8.47;84.91
5954;BME280;3002;42.642;24.812;2023-04-29T02:42:55;96563.91;;;8.38;88.19
5954;BME280;3002;42.642;24.812;2023-04-29T02:45:21;96571.38;;;8.51;87.62
5954;BME280;3002;42.642;24.812;2023-04-29T02:47:46;96549.97;;;8.51;88.05
5954;BME280;3002;42.642;24.812;2023-04-29T02:50:12;96554.97;;;8.83;85.79
5954;BME280;3002;42.642;24.812;2023-04-29T02:52:37;96535.28;;;8.64;87.28
5954;BME280;3002;42.642;24.812;2023-04-29T02:55:06;96553.88;;;8.89;87.10
5954;BME280;3002;42.642;24.812;2023-04-29T02:57:32;96556.41;;;8.50;91.74
5954;BME280;3002;42.642;24.812;2023-04-29T02:59:58;96578.84;;;8.64;90.22
5954;BME280;3002;42.642;24.812;2023-04-29T03:02:23;96583.25;;;8.99;88.36
5954;BME280;3002;42.642;24.812;2023-04-29T03:04:52;96553.44;;;8.51;90.09
5954;BME280;3002;42.642;24.812;2023-04-29T03:07:18;96570.06;;;8.38;91.53
5954;BME280;3002;42.642;24.812;2023-04-29T03:09:43;96565.50;;;8.28;91.59
5954;BME280;3002;42.642;24.812;2023-04-29T03:12:08;96577.78;;;8.50;91.26
5954;BME280;3002;42.642;24.812;2023-04-29T03:14:34;96584.22;;;8.28;93.03
5954;BME280;3002;42.642;24.812;2023-04-29T03:17:00;96586.88;;;8.39;93.54
5954;BME280;3002;42.642;24.812;2023-04-29T03:19:26;96594.38;;;8.52;93.04
5954;BME280;3002;42.642;24.812;2023-04-29T03:21:51;96566.59;;;8.12;95.23
5954;BME280;3002;42.642;24.812;2023-04-29T03:24:17;96583.94;;;8.15;96.09
5954;BME280;3002;42.642;24.812;2023-04-29T03:26:42;96578.59;;;8.25;95.83
5954;BME280;3002;42.642;24.812;2023-04-29T03:29:08;96586.88;;;8.28;94.93
5954;BME280;3002;42.642;24.812;2023-04-29T03:31:33;96600.25;;;8.54;92.79
5954;BME280;3002;42.642;24.812;2023-04-29T03:33:59;96583.94;;;8.50;91.33
5954;BME280;3002;42.642;24.812;2023-04-29T03:36:24;96582.63;;;8.38;91.89
5954;BME280;3002;42.642;24.812;2023-04-29T03:38:50;96582.31;;;8.60;92.16
5954;BME280;3002;42.642;24.812;2023-04-29T03:41:16;96595.31;;;8.87;89.47
5954;BME280;3002;42.642;24.812;2023-04-29T03:43:41;96576.47;;;8.47;91.58
5954;BME280;3002;42.642;24.812;2023-04-29T03:46:10;96599.09;;;8.75;90.25
5954;BME280;3002;42.642;24.812;2023-04-29T03:48:36;96590.63;;;8.48;91.99
5954;BME280;3002;42.642;24.812;2023-04-29T03:51:02;96615.63;;;8.98;89.58
5954;BME280;3002;42.642;24.812;2023-04-29T03:53:28;96607.31;;;9.04;86.50
5954;BME280;3002;42.642;24.812;2023-04-29T03:55:53;96604.09;;;9.07;86.64
5954;BME280;3002;42.642;24.812;2023-04-29T03:58:19;96594.88;;;9.34;83.07
5954;BME280;3002;42.642;24.812;2023-04-29T04:00:44;96620.28;;;9.42;83.30
5954;BME280;3002;42.642;24.812;2023-04-29T04:03:10;96620.84;;;9.33;84.70
5954;BME280;3002;42.642;24.812;2023-04-29T04:05:36;96620.28;;;9.86;81.27
5954;BME280;3002;42.642;24.812;2023-04-29T04:08:01;96615.63;;;10.02;79.54
5954;BME280;3002;42.642;24.812;2023-04-29T04:10:27;96599.69;;;9.32;82.27
5954;BME280;3002;42.642;24.812;2023-04-29T04:12:52;96584.53;;;9.67;80.72
5954;BME280;3002;42.642;24.812;2023-04-29T04:15:18;96610.16;;;10.12;82.33
5954;BME280;3002;42.642;24.812;2023-04-29T04:17:43;96600.91;;;9.94;78.40
5954;BME280;3002;42.642;24.812;2023-04-29T04:20:09;96618.75;;;10.43;77.51
5954;BME280;3002;42.642;24.812;2023-04-29T04:22:35;96597.34;;;10.67;75.02
5954;BME280;3002;42.642;24.812;2023-04-29T04:25:01;96615.75;;;11.03;71.60
5954;BME280;3002;42.642;24.812;2023-04-29T04:27:26;96598.66;;;11.41;69.48
5954;BME280;3002;42.642;24.812;2023-04-29T04:29:53;96611.66;;;11.10;71.35
5954;BME280;3002;42.642;24.812;2023-04-29T04:32:19;96603.75;;;11.19;70.35
5954;BME280;3002;42.642;24.812;2023-04-29T04:34:45;96603.63;;;10.57;72.02
5954;BME280;3002;42.642;24.812;2023-04-29T04:37:12;96600.63;;;10.35;73.95
5954;BME280;3002;42.642;24.812;2023-04-29T04:39:38;96612.06;;;10.75;74.19
5954;BME280;3002;42.642;24.812;2023-04-29T04:42:03;96598.34;;;11.24;69.77
5954;BME280;3002;42.642;24.812;2023-04-29T04:44:29;96611.84;;;11.38;69.30
5954;BME280;3002;42.642;24.812;2023-04-29T04:46:55;96597.41;;;11.34;68.90
5954;BME280;3002;42.642;24.812;2023-04-29T04:49:22;96615.38;;;11.76;67.81
5954;BME280;3002;42.642;24.812;2023-04-29T04:51:49;96621.91;;;11.70;66.70
5954;BME280;3002;42.642;24.812;2023-04-29T04:54:15;96595.25;;;11.55;67.71
5954;BME280;3002;42.642;24.812;2023-04-29T04:56:41;96582.03;;;11.58;68.39
5954;BME280;3002;42.642;24.812;2023-04-29T04:59:07;96604.38;;;12.10;67.30
5954;BME280;3002;42.642;24.812;2023-04-29T05:01:32;96614.56;;;12.13;66.65
5954;BME280;3002;42.642;24.812;2023-04-29T05:03:58;96593.72;;;11.06;69.40
5954;BME280;3002;42.642;24.812;2023-04-29T05:06:25;96607.41;;;11.28;69.71
5954;BME280;3002;42.642;24.812;2023-04-29T05:08:50;96592.38;;;11.89;67.30
5954;BME280;3002;42.642;24.812;2023-04-29T05:11:20;96608.94;;;12.28;65.68
5954;BME280;3002;42.642;24.812;2023-04-29T05:13:46;96614.81;;;12.77;63.53
5954;BME280;3002;42.642;24.812;2023-04-29T05:16:12;96607.03;;;12.62;64.11
5954;BME280;3002;42.642;24.812;2023-04-29T05:18:38;96601.25;;;12.54;63.55
5954;BME280;3002;42.642;24.812;2023-04-29T05:21:03;96610.75;;;13.07;61.12
5954;BME280;3002;42.642;24.812;2023-04-29T05:23:29;96602.19;;;10.94;71.79
5954;BME280;3002;42.642;24.812;2023-04-29T05:25:55;96600.78;;;12.66;62.88
5954;BME280;3002;42.642;24.812;2023-04-29T05:28:20;96613.88;;;13.42;60.99
5954;BME280;3002;42.642;24.812;2023-04-29T05:30:49;96621.47;;;13.26;61.23
5954;BME280;3002;42.642;24.812;2023-04-29T05:33:15;96606.41;;;12.51;66.06
5954;BME280;3002;42.642;24.812;2023-04-29T05:35:40;96605.56;;;13.52;60.60
5954;BME280;3002;42.642;24.812;2023-04-29T05:38:06;96603.63;;;15.01;56.43
5954;BME280;3002;42.642;24.812;2023-04-29T05:40:31;96591.06;;;15.62;52.69
5954;BME280;3002;42.642;24.812;2023-04-29T05:42:57;96595.63;;;15.35;52.71
5954;BME280;3002;42.642;24.812;2023-04-29T05:45:22;96582.84;;;15.75;52.01
5954;BME280;3002;42.642;24.812;2023-04-29T05:47:48;96595.00;;;14.36;53.44
5954;BME280;3002;42.642;24.812;2023-04-29T05:50:13;96597.59;;;15.61;51.99
5954;BME280;3002;42.642;24.812;2023-04-29T05:52:39;96575.88;;;14.24;54.49
5954;BME280;3002;42.642;24.812;2023-04-29T05:55:04;96581.50;;;14.36;54.79
5954;BME280;3002;42.642;24.812;2023-04-29T05:57:30;96584.25;;;14.67;53.55
5954;BME280;3002;42.642;24.812;2023-04-29T06:00:11;96579.16;;;13.40;56.19
5954;BME280;3002;42.642;24.812;2023-04-29T06:02:37;96559.88;;;13.83;56.46
5954;BME280;3002;42.642;24.812;2023-04-29T06:05:04;96581.13;;;13.62;56.92
5954;BME280;3002;42.642;24.812;2023-04-29T06:07:30;96575.34;;;14.58;55.79
5954;BME280;3002;42.642;24.812;2023-04-29T06:09:55;96577.91;;;16.12;52.91
5954;BME280;3002;42.642;24.812;2023-04-29T06:12:21;96576.00;;;17.24;50.17
5954;BME280;3002;42.642;24.812;2023-04-29T06:14:46;96568.75;;;17.87;49.15
5954;BME280;3002;42.642;24.812;2023-04-29T06:17:12;96560.41;;;18.13;48.78
5954;BME280;3002;42.642;24.812;2023-04-29T06:19:37;96560.56;;;17.75;49.82
5954;BME280;3002;42.642;24.812;2023-04-29T06:22:03;96596.69;;;16.99;52.08
5954;BME280;3002;42.642;24.812;2023-04-29T06:24:28;96575.34;;;17.56;50.17
5954;BME280;3002;42.642;24.812;2023-04-29T06:26:53;96574.53;;;17.35;49.48
5954;BME280;3002;42.642;24.812;2023-04-29T06:29:19;96570.06;;;18.23;47.08
5954;BME280;3002;42.642;24.812;2023-04-29T06:31:44;96552.28;;;17.71;48.79
5954;BME280;3002;42.642;24.812;2023-04-29T06:34:10;96576.28;;;18.89;45.37
5954;BME280;3002;42.642;24.812;2023-04-29T06:36:35;96587.97;;;19.63;44.17
5954;BME280;3002;42.642;24.812;2023-04-29T06:39:01;96563.00;;;19.49;42.75
5954;BME280;3002;42.642;24.812;2023-04-29T06:41:26;96562.94;;;20.26;41.07
5954;BME280;3002;42.642;24.812;2023-04-29T06:43:52;96561.50;;;21.35;38.58
5954;BME280;3002;42.642;24.812;2023-04-29T06:46:17;96577.66;;;21.60;37.92
5954;BME280;3002;42.642;24.812;2023-04-29T06:48:43;96563.25;;;21.12;37.19
5954;BME280;3002;42.642;24.812;2023-04-29T06:51:08;96560.09;;;21.42;37.46
5954;BME280;3002;42.642;24.812;2023-04-29T06:53:34;96580.69;;;22.09;34.38
5954;BME280;3002;42.642;24.812;2023-04-29T06:55:59;96574.22;;;22.17;34.29
5954;BME280;3002;42.642;24.812;2023-04-29T06:58:25;96572.31;;;22.60;35.49
5954;BME280;3002;42.642;24.812;2023-04-29T07:00:50;96571.06;;;22.77;34.30
5954;BME280;3002;42.642;24.812;2023-04-29T07:03:17;96554.00;;;21.83;35.50
5954;BME280;3002;42.642;24.812;2023-04-29T07:05:43;96562.41;;;19.92;38.26
5954;BME280;3002;42.642;24.812;2023-04-29T07:08:12;96566.31;;;19.18;38.64
5954;BME280;3002;42.642;24.812;2023-04-29T07:10:38;96538.38;;;20.38;35.69
5954;BME280;3002;42.642;24.812;2023-04-29T07:13:04;96549.91;;;21.93;34.51
5954;BME280;3002;42.642;24.812;2023-04-29T07:15:33;96564.97;;;21.52;34.40
5954;BME280;3002;42.642;24.812;2023-04-29T07:17:58;96573.59;;;21.89;34.60
5954;BME280;3002;42.642;24.812;2023-04-29T07:20:25;96570.34;;;19.85;37.30
5954;BME280;3002;42.642;24.812;2023-04-29T07:22:51;96541.97;;;20.70;36.29
5954;BME280;3002;42.642;24.812;2023-04-29T07:25:17;96562.84;;;21.96;34.11
5954;BME280;3002;42.642;24.812;2023-04-29T07:27:42;96554.31;;;23.24;32.91
5954;BME280;3002;42.642;24.812;2023-04-29T07:30:08;96553.72;;;22.89;32.63
5954;BME280;3002;42.642;24.812;2023-04-29T07:32:34;96556.38;;;24.14;30.75
5954;BME280;3002;42.642;24.812;2023-04-29T07:35:00;96544.84;;;21.76;33.07
5954;BME280;3002;42.642;24.812;2023-04-29T07:37:25;96544.94;;;21.79;33.31
5954;BME280;3002;42.642;24.812;2023-04-29T07:39:51;96526.34;;;19.83;36.13
5954;BME280;3002;42.642;24.812;2023-04-29T07:42:17;96546.00;;;21.40;35.14
5954;BME280;3002;42.642;24.812;2023-04-29T07:44:43;96542.22;;;20.97;34.11
5954;BME280;3002;42.642;24.812;2023-04-29T07:47:11;96539.25;;;20.70;35.32
5954;BME280;3002;42.642;24.812;2023-04-29T07:49:37;96536.75;;;23.03;33.09
5954;BME280;3002;42.642;24.812;2023-04-29T07:52:06;96521.28;;;22.87;32.31
5954;BME280;3002;42.642;24.812;2023-04-29T07:54:34;96548.56;;;20.69;35.51
5954;BME280;3002;42.642;24.812;2023-04-29T07:57:00;96533.38;;;22.44;34.29
5954;BME280;3002;42.642;24.812;2023-04-29T07:59:27;96533.00;;;22.46;32.60
5954;BME280;3002;42.642;24.812;2023-04-29T08:01:53;96533.69;;;23.31;32.49
5954;BME280;3002;42.642;24.812;2023-04-29T08:04:18;96526.28;;;23.08;32.09
5954;BME280;3002;42.642;24.812;2023-04-29T08:06:44;96526.03;;;23.43;32.19
5954;BME280;3002;42.642;24.812;2023-04-29T08:09:09;96517.28;;;23.08;32.39
5954;BME280;3002;42.642;24.812;2023-04-29T08:11:35;96532.72;;;23.19;32.26
5954;BME280;3002;42.642;24.812;2023-04-29T08:14:01;96523.28;;;23.96;31.49
5954;BME280;3002;42.642;24.812;2023-04-29T08:16:26;96529.09;;;23.12;31.52
5954;BME280;3002;42.642;24.812;2023-04-29T08:18:52;96507.56;;;20.06;35.51
5954;BME280;3002;42.642;24.812;2023-04-29T08:21:18;96523.06;;;22.14;33.28
5954;BME280;3002;42.642;24.812;2023-04-29T08:23:44;96511.97;;;20.26;35.55
5954;BME280;3002;42.642;24.812;2023-04-29T08:26:10;96510.75;;;21.85;33.73
5954;BME280;3002;42.642;24.812;2023-04-29T08:28:37;96484.72;;;22.30;32.94
5954;BME280;3002;42.642;24.812;2023-04-29T08:31:03;96510.00;;;22.69;31.95
5954;BME280;3002;42.642;24.812;2023-04-29T08:33:32;96514.34;;;22.28;31.48
5954;BME280;3002;42.642;24.812;2023-04-29T08:36:02;96515.41;;;22.24;34.44
5954;BME280;3002;42.642;24.812;2023-04-29T08:38:29;96512.56;;;22.82;32.73
5954;BME280;3002;42.642;24.812;2023-04-29T08:40:55;96510.69;;;22.63;31.91
5954;BME280;3002;42.642;24.812;2023-04-29T08:43:21;96513.59;;;21.73;33.31
5954;BME280;3002;42.642;24.812;2023-04-29T08:45:50;96503.38;;;20.84;33.86
5954;BME280;3002;42.642;24.812;2023-04-29T08:48:17;96500.94;;;19.79;36.42
5954;BME280;3002;42.642;24.812;2023-04-29T08:50:43;96504.91;;;21.48;34.30
5954;BME280;3002;42.642;24.812;2023-04-29T08:53:11;96505.59;;;22.61;31.83
5954;BME280;3002;42.642;24.812;2023-04-29T08:55:42;96506.50;;;22.27;31.83
5954;BME280;3002;42.642;24.812;2023-04-29T08:58:08;96473.91;;;23.06;32.12
5954;BME280;3002;42.642;24.812;2023-04-29T09:00:35;96476.00;;;23.43;30.38
5954;BME280;3002;42.642;24.812;2023-04-29T09:03:29;96479.28;;;22.99;30.53
5954;BME280;3002;42.642;24.812;2023-04-29T09:05:59;96501.66;;;24.59;29.15
5954;BME280;3002;42.642;24.812;2023-04-29T09:08:26;96467.50;;;23.78;28.66
5954;BME280;3002;42.642;24.812;2023-04-29T09:10:52;96461.34;;;24.63;27.24
5954;BME280;3002;42.642;24.812;2023-04-29T09:13:31;96487.53;;;24.56;27.07
5954;BME280;3002;42.642;24.812;2023-04-29T09:15:57;96484.44;;;22.81;28.32
5954;BME280;3002;42.642;24.812;2023-04-29T09:18:43;96479.75;;;21.23;31.88
5954;BME280;3002;42.642;24.812;2023-04-29T09:21:23;96471.78;;;21.88;30.50
5954;BME280;3002;42.642;24.812;2023-04-29T09:23:53;96463.66;;;23.86;30.41
5954;BME280;3002;42.642;24.812;2023-04-29T09:26:20;96455.56;;;24.71;29.18
5954;BME280;3002;42.642;24.812;2023-04-29T09:28:46;96445.47;;;25.41;27.79
5954;BME280;3002;42.642;24.812;2023-04-29T09:31:14;96443.78;;;25.95;27.32
5954;BME280;3002;42.642;24.812;2023-04-29T09:33:54;96441.88;;;23.97;27.76
5954;BME280;3002;42.642;24.812;2023-04-29T09:39:20;96439.69;;;22.01;29.12
5954;BME280;3002;42.642;24.812;2023-04-29T09:44:32;96425.53;;;21.57;25.18
5954;BME280;3002;42.642;24.812;2023-04-29T09:47:06;96419.94;;;21.50;28.32
5954;BME280;3002;42.642;24.812;2023-04-29T09:49:37;96424.75;;;20.86;30.74
5954;BME280;3002;42.642;24.812;2023-04-29T09:52:12;96409.06;;;23.67;28.28
5954;BME280;3002;42.642;24.812;2023-04-29T09:54:40;96411.28;;;25.28;26.43
5954;BME280;3002;42.642;24.812;2023-04-29T09:57:07;96410.22;;;25.47;27.95
5954;BME280;3002;42.642;24.812;2023-04-29T09:59:38;96410.50;;;23.91;28.20
5954;BME280;3002;42.642;24.812;2023-04-29T10:02:14;96398.19;;;24.52;28.31
5954;BME280;3002;42.642;24.812;2023-04-29T10:04:41;96390.19;;;25.46;27.05
5954;BME280;3002;42.642;24.812;2023-04-29T10:07:12;96380.13;;;25.79;27.15
5954;BME280;3002;42.642;24.812;2023-04-29T10:09:38;96375.44;;;25.76;27.10
5954;BME280;3002;42.642;24.812;2023-04-29T10:12:06;96362.13;;;25.85;26.56
5954;BME280;3002;42.642;24.812;2023-04-29T10:14:42;96370.81;;;25.11;26.45
5954;BME280;3002;42.642;24.812;2023-04-29T10:18:02;96388.56;;;22.93;28.12
5954;BME280;3002;42.642;24.812;2023-04-29T10:20:24;96379.72;;;23.64;27.76
5954;BME280;3002;42.642;24.812;2023-04-29T10:22:52;96384.44;;;24.96;26.97
5954;BME280;3002;42.642;24.812;2023-04-29T10:25:20;96382.56;;;25.98;25.47
5954;BME280;3002;42.642;24.812;2023-04-29T10:27:47;96374.28;;;27.30;25.25
5954;BME280;3002;42.642;24.812;2023-04-29T10:30:17;96369.81;;;27.65;23.85
5954;BME280;3002;42.642;24.812;2023-04-29T10:32:44;96368.81;;;27.02;24.38
5954;BME280;3002;42.642;24.812;2023-04-29T10:35:12;96377.66;;;25.52;26.52
5954;BME280;3002;42.642;24.812;2023-04-29T10:37:39;96370.03;;;26.29;25.93
5954;BME280;3002;42.642;24.812;2023-04-29T10:42:48;96371.78;;;23.25;29.25
5954;BME280;3002;42.642;24.812;2023-04-29T10:53:02;96353.88;;;23.01;30.31
5954;BME280;3002;42.642;24.812;2023-04-29T10:55:29;96356.09;;;24.30;29.57
5954;BME280;3002;42.642;24.812;2023-04-29T10:57:55;96359.50;;;24.61;28.44
5954;BME280;3002;42.642;24.812;2023-04-29T11:00:28;96357.47;;;25.09;28.13
5954;BME280;3002;42.642;24.812;2023-04-29T11:02:55;96340.00;;;23.50;30.42
5954;BME280;3002;42.642;24.812;2023-04-29T11:05:34;96352.38;;;26.55;26.56
5954;BME280;3002;42.642;24.812;2023-04-29T11:08:11;96336.59;;;27.09;25.43
5954;BME280;3002;42.642;24.812;2023-04-29T11:10:40;96348.47;;;27.87;24.35
5954;BME280;3002;42.642;24.812;2023-04-29T11:13:25;96349.22;;;26.18;25.71
5954;BME280;3002;42.642;24.812;2023-04-29T11:15:53;96321.91;;;27.48;25.98
5954;BME280;3002;42.642;24.812;2023-04-29T11:18:27;96311.34;;;27.32;25.71
5954;BME280;3002;42.642;24.812;2023-04-29T11:23:40;96314.78;;;28.17;24.67
5954;BME280;3002;42.642;24.812;2023-04-29T11:26:06;96306.66;;;27.99;25.41
5954;BME280;3002;42.642;24.812;2023-04-29T11:28:32;96306.97;;;25.21;28.24
5954;BME280;3002;42.642;24.812;2023-04-29T11:30:58;96277.75;;;26.46;27.49
5954;BME280;3002;42.642;24.812;2023-04-29T11:33:25;96292.91;;;24.60;29.04
5954;BME280;3002;42.642;24.812;2023-04-29T11:35:53;96295.69;;;25.51;29.22
5954;BME280;3002;42.642;24.812;2023-04-29T11:38:28;96299.97;;;25.41;28.31
5954;BME280;3002;42.642;24.812;2023-04-29T11:40:55;96301.94;;;24.13;29.84
5954;BME280;3002;42.642;24.812;2023-04-29T11:43:22;96298.41;;;24.64;29.37
5954;BME280;3002;42.642;24.812;2023-04-29T11:45:48;96298.94;;;23.13;31.68
5954;BME280;3002;42.642;24.812;2023-04-29T11:48:24;96307.88;;;24.22;30.11
5954;BME280;3002;42.642;24.812;2023-04-29T11:50:52;96266.34;;;22.18;32.37
5954;BME280;3002;42.642;24.812;2023-04-29T11:53:20;96292.41;;;23.59;32.49
5954;BME280;3002;42.642;24.812;2023-04-29T11:55:46;96292.69;;;22.56;31.85
5954;BME280;3002;42.642;24.812;2023-04-29T11:58:14;96273.09;;;22.51;32.59
5954;BME280;3002;42.642;24.812;2023-04-29T12:00:40;96281.59;;;23.69;31.64
5954;BME280;3002;42.642;24.812;2023-04-29T12:03:28;96285.53;;;24.75;30.18
5954;BME280;3002;42.642;24.812;2023-04-29T12:05:54;96275.16;;;23.17;31.87
5954;BME280;3002;42.642;24.812;2023-04-29T12:08:27;96270.97;;;22.93;31.43
5954;BME280;3002;42.642;24.812;2023-04-29T12:10:55;96275.41;;;23.76;30.78
5954;BME280;3002;42.642;24.812;2023-04-29T12:13:27;96259.19;;;22.89;31.35
5954;BME280;3002;42.642;24.812;2023-04-29T12:15:53;96267.66;;;23.85;30.73
5954;BME280;3002;42.642;24.812;2023-04-29T12:18:19;96241.66;;;24.13;30.07
5954;BME280;3002;42.642;24.812;2023-04-29T12:20:47;96266.13;;;24.36;30.23
5954;BME280;3002;42.642;24.812;2023-04-29T12:23:15;96237.56;;;25.17;29.32
5954;BME280;3002;42.642;24.812;2023-04-29T12:25:40;96239.38;;;23.70;31.25
5954;BME280;3002;42.642;24.812;2023-04-29T12:28:14;96248.72;;;22.12;32.16
5954;BME280;3002;42.642;24.812;2023-04-29T12:30:43;96238.59;;;22.99;31.87
5954;BME280;3002;42.642;24.812;2023-04-29T12:33:08;96237.75;;;23.66;30.83
5954;BME280;3002;42.642;24.812;2023-04-29T12:35:35;96243.22;;;23.29;31.21
5954;BME280;3002;42.642;24.812;2023-04-29T12:38:01;96247.97;;;24.20;30.71
5954;BME280;3002;42.642;24.812;2023-04-29T12:40:27;96231.31;;;22.50;32.50
5954;BME280;3002;42.642;24.812;2023-04-29T12:42:53;96242.47;;;23.32;31.55
5954;BME280;3002;42.642;24.812;2023-04-29T12:45:32;96237.03;;;23.35;32.01
5954;BME280;3002;42.642;24.812;2023-04-29T12:47:59;96247.78;;;23.55;31.38
5954;BME280;3002;42.642;24.812;2023-04-29T12:50:34;96236.84;;;21.78;32.77
5954;BME280;3002;42.642;24.812;2023-04-29T12:53:04;96244.59;;;23.12;32.46
5954;BME280;3002;42.642;24.812;2023-04-29T12:55:37;96240.06;;;23.27;32.79
5954;BME280;3002;42.642;24.812;2023-04-29T12:58:03;96238.97;;;23.72;31.90
5954;BME280;3002;42.642;24.812;2023-04-29T13:00:29;96234.47;;;24.45;31.16
5954;BME280;3002;42.642;24.812;2023-04-29T13:02:55;96215.56;;;23.78;31.60
5954;BME280;3002;42.642;24.812;2023-04-29T13:05:20;96227.06;;;23.94;31.31
5954;BME280;3002;42.642;24.812;2023-04-29T13:07:47;96230.66;;;23.24;32.06
5954;BME280;3002;42.642;24.812;2023-04-29T13:10:13;96227.56;;;22.09;33.54
5954;BME280;3002;42.642;24.812;2023-04-29T13:12:39;96225.06;;;22.50;33.31
5954;BME280;3002;42.642;24.812;2023-04-29T13:15:06;96225.75;;;21.44;34.11
5954;BME280;3002;42.642;24.812;2023-04-29T13:17:34;96220.41;;;20.70;35.50
5954;BME280;3002;42.642;24.812;2023-04-29T13:20:01;96213.06;;;22.28;33.50
5954;BME280;3002;42.642;24.812;2023-04-29T13:22:26;96222.34;;;22.80;33.23
5954;BME280;3002;42.642;24.812;2023-04-29T13:24:52;96215.69;;;22.81;32.56
5954;BME280;3002;42.642;24.812;2023-04-29T13:27:18;96218.63;;;23.32;31.90
5954;BME280;3002;42.642;24.812;2023-04-29T13:29:43;96192.41;;;23.68;31.45
5954;BME280;3002;42.642;24.812;2023-04-29T13:32:09;96216.09;;;23.13;32.47
5954;BME280;3002;42.642;24.812;2023-04-29T13:34:34;96202.94;;;21.56;34.40
5954;BME280;3002;42.642;24.812;2023-04-29T13:37:00;96199.63;;;21.66;34.24
5954;BME280;3002;42.642;24.812;2023-04-29T13:39:25;96186.34;;;22.78;32.19
5954;BME280;3002;42.642;24.812;2023-04-29T13:41:51;96206.56;;;23.00;32.49